createdAt,value
2018-10-19T00:00:59.347Z,15.31
2018-10-19T00:03:27.645Z,15.30
2018-10-19T00:05:55.803Z,15.28
2018-10-19T00:08:24.006Z,15.24
2018-10-19T00:10:52.314Z,15.21
2018-10-19T00:13:20.490Z,15.19
2018-10-19T00:15:48.708Z,15.16
2018-10-19T00:18:16.955Z,15.14
2018-10-19T00:20:45.355Z,15.11
2018-10-19T00:23:13.746Z,15.07
2018-10-19T00:25:41.896Z,15.05
2018-10-19T00:28:10.143Z,15.02
2018-10-19T00:30:38.324Z,14.98
2018-10-19T00:33:06.504Z,14.90
2018-10-19T00:35:34.688Z,14.82
2018-10-19T00:38:02.983Z,14.72
2018-10-19T00:40:31.647Z,14.67
2018-10-19T00:42:59.948Z,14.63
2018-10-19T00:45:33.331Z,14.57
2018-10-19T00:48:08.687Z,14.55
2018-10-19T00:50:36.940Z,14.50
2018-10-19T00:53:05.724Z,14.43
2018-10-19T00:55:33.923Z,14.36
2018-10-19T00:58:02.315Z,14.33
2018-10-19T01:00:30.596Z,14.28
2018-10-19T01:02:58.862Z,14.26
2018-10-19T01:05:27.081Z,14.22
2018-10-19T01:07:55.484Z,14.22
2018-10-19T01:10:24.077Z,14.19
2018-10-19T01:12:54.890Z,14.17
2018-10-19T01:15:23.103Z,14.14
2018-10-19T01:17:51.643Z,14.08
2018-10-19T01:20:19.910Z,14.07
2018-10-19T01:22:48.115Z,14.06
2018-10-19T01:25:16.314Z,14.09
2018-10-19T01:27:44.499Z,14.13
2018-10-19T01:30:12.699Z,14.19
2018-10-19T01:32:40.940Z,14.21
2018-10-19T01:35:10.976Z,14.25
2018-10-19T01:37:39.111Z,14.26
2018-10-19T01:40:09.286Z,14.29
2018-10-19T01:42:37.808Z,14.30
2018-10-19T01:45:06.953Z,14.33
2018-10-19T01:47:35.130Z,14.40
2018-10-19T01:50:03.392Z,14.47
2018-10-19T01:52:31.575Z,14.49
2018-10-19T01:54:59.798Z,14.52
2018-10-19T01:57:27.971Z,14.55
2018-10-19T01:59:56.127Z,14.60
2018-10-19T02:02:24.315Z,14.62
2018-10-19T02:04:52.477Z,14.65
2018-10-19T02:07:20.654Z,14.67
2018-10-19T02:09:48.827Z,14.69
2018-10-19T02:12:17.042Z,14.70
2018-10-19T02:14:45.207Z,14.71
2018-10-19T02:17:13.684Z,14.72
2018-10-19T02:19:41.823Z,14.74
2018-10-19T02:22:10.136Z,14.79
2018-10-19T02:24:38.314Z,14.80
2018-10-19T02:27:06.964Z,14.82
2018-10-19T02:29:35.195Z,14.82
2018-10-19T02:32:03.384Z,14.83
2018-10-19T02:34:31.568Z,14.85
2018-10-19T02:36:59.740Z,14.85
2018-10-19T02:39:27.900Z,14.88
2018-10-19T02:41:56.146Z,14.88
2018-10-19T02:44:24.317Z,14.90
2018-10-19T02:46:52.500Z,14.92
2018-10-19T02:49:20.654Z,14.94
2018-10-19T02:51:48.812Z,14.94
2018-10-19T02:54:16.983Z,14.96
2018-10-19T02:56:45.233Z,14.97
2018-10-19T02:59:13.555Z,14.98
2018-10-19T03:01:41.675Z,14.98
2018-10-19T03:04:09.867Z,15.01
2018-10-19T03:06:38.100Z,15.02
2018-10-19T03:09:09.214Z,15.01
2018-10-19T03:11:37.373Z,14.99
2018-10-19T03:14:05.510Z,15.00
2018-10-19T03:16:33.654Z,15.01
2018-10-19T03:19:01.831Z,15.01
2018-10-19T03:21:30.024Z,15.00
2018-10-19T03:23:58.275Z,14.98
2018-10-19T03:26:26.508Z,14.98
2018-10-19T03:28:54.689Z,14.96
2018-10-19T03:31:22.882Z,14.92
2018-10-19T03:33:51.047Z,14.87
2018-10-19T03:36:19.261Z,14.83
2018-10-19T03:38:47.488Z,14.77
2018-10-19T03:41:15.697Z,14.71
2018-10-19T03:43:43.867Z,14.66
2018-10-19T03:46:12.063Z,14.63
2018-10-19T03:48:40.648Z,14.62
2018-10-19T03:51:08.901Z,14.63
2018-10-19T03:53:37.072Z,14.65
2018-10-19T03:56:05.258Z,14.65
2018-10-19T03:58:33.424Z,14.66
2018-10-19T04:01:01.622Z,14.68
2018-10-19T04:03:29.840Z,14.70
2018-10-19T04:05:57.960Z,14.70
2018-10-19T04:08:26.207Z,14.68
2018-10-19T04:10:54.439Z,14.69
2018-10-19T04:13:22.609Z,14.68
2018-10-19T04:15:50.767Z,14.67
2018-10-19T04:18:19.027Z,14.66
2018-10-19T04:20:47.181Z,14.66
2018-10-19T04:23:15.401Z,14.66
2018-10-19T04:25:43.524Z,14.64
2018-10-19T04:28:11.717Z,14.63
2018-10-19T04:30:39.930Z,14.65
2018-10-19T04:33:08.187Z,14.64
2018-10-19T04:35:36.403Z,14.63
2018-10-19T04:38:04.639Z,14.60
2018-10-19T04:40:32.857Z,14.59
2018-10-19T04:43:04.178Z,14.55
2018-10-19T04:45:32.422Z,14.51
2018-10-19T04:48:00.646Z,14.53
2018-10-19T04:50:28.816Z,14.55
2018-10-19T04:52:57.104Z,14.59
2018-10-19T04:55:25.264Z,14.59
2018-10-19T04:57:53.456Z,14.59
2018-10-19T05:00:22.071Z,14.60
2018-10-19T05:02:51.208Z,14.63
2018-10-19T05:05:19.654Z,14.65
2018-10-19T05:07:47.650Z,14.65
2018-10-19T05:10:15.868Z,14.67
2018-10-19T05:12:44.056Z,14.67
2018-10-19T05:15:12.584Z,14.69
2018-10-19T05:17:40.770Z,14.70
2018-10-19T05:20:10.782Z,14.71
2018-10-19T05:22:39.059Z,14.72
2018-10-19T05:25:09.260Z,14.72
2018-10-19T05:27:37.467Z,14.73
2018-10-19T05:30:07.120Z,14.72
2018-10-19T05:32:35.324Z,14.73
2018-10-19T05:35:03.655Z,14.71
2018-10-19T05:37:32.404Z,14.73
2018-10-19T05:40:01.380Z,14.73
2018-10-19T05:42:29.567Z,14.74
2018-10-19T05:44:57.758Z,14.77
2018-10-19T05:47:25.974Z,14.78
2018-10-19T05:49:54.335Z,14.79
2018-10-19T05:52:22.511Z,14.81
2018-10-19T05:54:50.913Z,14.81
2018-10-19T05:57:19.071Z,14.84
2018-10-19T05:59:47.256Z,14.84
2018-10-19T06:02:15.621Z,14.85
2018-10-19T06:04:43.669Z,14.85
2018-10-19T06:07:11.828Z,14.86
2018-10-19T06:09:40.012Z,14.87
2018-10-19T06:12:08.338Z,14.87
2018-10-19T06:14:36.554Z,14.88
2018-10-19T06:17:05.117Z,14.87
2018-10-19T06:19:33.207Z,14.88
2018-10-19T06:22:07.763Z,14.87
2018-10-19T06:24:35.975Z,14.87
2018-10-19T06:27:04.171Z,14.86
2018-10-19T06:29:32.334Z,14.86
2018-10-19T06:32:00.493Z,14.86
2018-10-19T06:34:28.673Z,14.86
2018-10-19T06:36:56.883Z,14.85
2018-10-19T06:39:25.068Z,14.85
2018-10-19T06:41:53.260Z,14.86
2018-10-19T06:44:21.519Z,14.85
2018-10-19T06:46:49.741Z,14.85
2018-10-19T06:49:17.886Z,14.86
2018-10-19T06:51:46.083Z,14.86
2018-10-19T06:54:14.267Z,14.87
2018-10-19T06:56:42.508Z,14.86
2018-10-19T06:59:10.826Z,14.87
2018-10-19T07:01:38.839Z,14.85
2018-10-19T07:04:07.050Z,14.88
2018-10-19T07:06:35.220Z,14.89
2018-10-19T07:09:04.436Z,14.91
2018-10-19T07:11:32.637Z,14.93
2018-10-19T07:14:00.905Z,14.94
2018-10-19T07:16:28.992Z,14.95
2018-10-19T07:18:57.233Z,14.94
2018-10-19T07:21:25.347Z,14.94
2018-10-19T07:23:53.790Z,14.96
2018-10-19T07:26:22.336Z,14.95
2018-10-19T07:28:50.558Z,14.96
2018-10-19T07:31:18.795Z,14.99
2018-10-19T07:33:46.962Z,15.00
2018-10-19T07:36:15.182Z,15.01
2018-10-19T07:38:43.416Z,15.01
2018-10-19T07:41:11.668Z,15.03
2018-10-19T07:43:39.798Z,15.02
2018-10-19T07:46:07.962Z,15.02
2018-10-19T07:48:36.375Z,15.03
2018-10-19T07:51:04.519Z,15.02
2018-10-19T07:53:32.711Z,15.04
2018-10-19T07:56:01.039Z,15.05
2018-10-19T07:58:31.014Z,15.05
2018-10-19T08:00:59.268Z,15.05
2018-10-19T08:03:27.435Z,15.08
2018-10-19T08:05:55.615Z,15.11
2018-10-19T08:08:23.892Z,15.15
2018-10-19T08:10:52.277Z,15.14
2018-10-19T08:13:20.536Z,15.17
2018-10-19T08:15:48.686Z,15.22
2018-10-19T08:18:16.874Z,15.29
2018-10-19T08:20:45.079Z,15.34
2018-10-19T08:23:13.508Z,15.36
2018-10-19T08:25:41.683Z,15.39
2018-10-19T08:28:09.891Z,15.42
2018-10-19T08:30:38.126Z,15.46
2018-10-19T08:33:06.475Z,15.47
2018-10-19T08:35:34.685Z,15.49
2018-10-19T08:38:02.935Z,15.49
2018-10-19T08:40:31.565Z,15.49
2018-10-19T08:42:59.819Z,15.47
2018-10-19T08:45:28.034Z,15.48
2018-10-19T08:47:56.218Z,15.52
2018-10-19T08:50:24.423Z,15.52
2018-10-19T08:52:53.143Z,15.48
2018-10-19T08:55:21.427Z,15.42
2018-10-19T08:57:49.735Z,15.40
2018-10-19T09:00:17.991Z,15.39
2018-10-19T09:02:46.130Z,15.39
2018-10-19T09:05:14.569Z,15.44
2018-10-19T09:07:49.031Z,15.48
2018-10-19T09:10:17.265Z,15.58
2018-10-19T09:12:45.601Z,15.61
2018-10-19T09:15:13.823Z,15.66
2018-10-19T09:17:41.969Z,15.69
2018-10-19T09:20:11.148Z,15.72
2018-10-19T09:22:39.391Z,15.75
2018-10-19T09:25:07.601Z,15.78
2018-10-19T09:27:35.883Z,15.80
2018-10-19T09:30:04.321Z,15.84
2018-10-19T09:32:32.490Z,15.90
2018-10-19T09:35:00.723Z,15.95
2018-10-19T09:37:28.926Z,16.02
2018-10-19T09:39:57.143Z,16.11
2018-10-19T09:42:25.343Z,16.19
2018-10-19T09:44:53.660Z,16.27
2018-10-19T09:47:21.906Z,16.34
2018-10-19T09:49:50.087Z,16.39
2018-10-19T09:52:18.289Z,16.45
2018-10-19T09:54:46.519Z,16.49
2018-10-19T09:57:14.822Z,16.55
2018-10-19T09:59:42.887Z,16.55
2018-10-19T10:02:11.169Z,16.58
2018-10-19T10:04:39.307Z,16.65
2018-10-19T10:07:07.597Z,16.70
2018-10-19T10:09:35.832Z,16.78
2018-10-19T10:12:04.117Z,16.90
2018-10-19T10:14:32.290Z,17.03
2018-10-19T10:17:00.533Z,17.15
2018-10-19T10:19:28.679Z,17.25
2018-10-19T10:21:56.930Z,17.36
2018-10-19T10:24:25.074Z,17.45
2018-10-19T10:26:53.323Z,17.56
2018-10-19T10:29:21.607Z,17.64
2018-10-19T10:31:49.804Z,17.71
2018-10-19T10:34:18.195Z,17.79
2018-10-19T10:36:46.304Z,17.86
2018-10-19T10:39:14.931Z,17.86
2018-10-19T10:41:42.957Z,17.91
2018-10-19T10:44:11.131Z,17.95
2018-10-19T10:46:39.481Z,17.92
2018-10-19T10:49:07.733Z,17.89
2018-10-19T10:51:35.884Z,17.85
2018-10-19T10:54:04.138Z,17.78
2018-10-19T10:56:32.336Z,17.68
2018-10-19T10:59:00.571Z,17.60
2018-10-19T11:01:28.750Z,17.53
2018-10-19T11:04:00.039Z,17.52
2018-10-19T11:06:28.248Z,17.50
2018-10-19T11:08:56.436Z,17.53
2018-10-19T11:11:24.644Z,17.59
2018-10-19T11:13:52.835Z,17.66
2018-10-19T11:16:21.025Z,17.70
2018-10-19T11:18:49.183Z,17.70
2018-10-19T11:21:17.439Z,17.69
2018-10-19T11:23:45.612Z,17.66
2018-10-19T11:26:13.820Z,17.63
2018-10-19T11:28:41.991Z,17.58
2018-10-19T11:31:10.281Z,17.51
2018-10-19T11:33:38.462Z,17.45
2018-10-19T11:36:06.651Z,17.43
2018-10-19T11:38:34.838Z,17.44
2018-10-19T11:41:02.999Z,17.47
2018-10-19T11:43:31.263Z,17.47
2018-10-19T11:45:59.494Z,17.42
2018-10-19T11:48:27.720Z,17.39
2018-10-19T11:50:55.891Z,17.38
2018-10-19T11:53:24.077Z,17.41
2018-10-19T11:55:52.331Z,17.45
2018-10-19T11:58:20.511Z,17.48
2018-10-19T12:00:48.744Z,17.48
2018-10-19T12:03:16.955Z,17.48
2018-10-19T12:05:45.124Z,17.48
2018-10-19T12:08:13.360Z,17.52
2018-10-19T12:10:48.405Z,17.55
2018-10-19T12:13:16.670Z,17.56
2018-10-19T12:15:44.769Z,17.60
2018-10-19T12:18:12.979Z,17.64
2018-10-19T12:20:41.221Z,17.67
2018-10-19T12:23:09.448Z,17.68
2018-10-19T12:25:37.665Z,17.71
2018-10-19T12:28:05.831Z,17.75
2018-10-19T12:30:34.044Z,17.79
2018-10-19T12:33:02.294Z,17.81
2018-10-19T12:35:30.489Z,17.84
2018-10-19T12:37:58.615Z,17.87
2018-10-19T12:40:27.402Z,17.92
2018-10-19T12:42:55.609Z,17.93
2018-10-19T12:46:36.092Z,17.94
2018-10-19T12:49:04.928Z,17.89
2018-10-19T12:51:33.277Z,17.87
2018-10-19T12:54:01.597Z,17.85
2018-10-19T12:56:29.786Z,17.85
2018-10-19T12:58:58.051Z,17.84
2018-10-19T13:01:27.479Z,17.81
2018-10-19T13:03:55.711Z,17.84
2018-10-19T13:06:23.911Z,17.86
2018-10-19T13:08:52.592Z,17.90
2018-10-19T13:11:20.852Z,17.95
2018-10-19T13:13:49.137Z,18.00
2018-10-19T13:16:17.377Z,18.06
2018-10-19T13:18:45.565Z,18.11
2018-10-19T13:21:13.813Z,18.12
2018-10-19T13:23:42.031Z,18.13
2018-10-19T13:26:10.174Z,18.12
2018-10-19T13:28:38.476Z,18.15
2018-10-19T13:31:06.690Z,18.16
2018-10-19T13:33:34.917Z,18.17
2018-10-19T13:36:03.186Z,18.24
2018-10-19T13:38:31.371Z,18.27
2018-10-19T13:40:59.559Z,18.31
2018-10-19T13:43:27.777Z,18.31
2018-10-19T13:45:56.045Z,18.25
2018-10-19T13:48:24.448Z,18.18
2018-10-19T13:50:52.732Z,18.18
2018-10-19T13:53:20.959Z,18.20
2018-10-19T13:55:49.183Z,18.24
2018-10-19T13:58:17.456Z,18.32
2018-10-19T14:00:45.609Z,18.45
2018-10-19T14:03:13.882Z,18.52
2018-10-19T14:05:42.320Z,18.56
2018-10-19T14:08:10.286Z,18.58
2018-10-19T14:10:38.520Z,18.58
2018-10-19T14:13:06.988Z,18.60
2018-10-19T14:15:35.972Z,18.65
2018-10-19T14:18:05.472Z,18.73
2018-10-19T14:20:33.702Z,18.82
2018-10-19T14:23:01.982Z,18.88
2018-10-19T14:25:30.602Z,18.90
2018-10-19T14:27:58.759Z,18.90
2018-10-19T14:30:26.961Z,18.89
2018-10-19T14:32:55.230Z,18.88
2018-10-19T14:35:23.384Z,18.85
2018-10-19T14:37:51.543Z,18.83
2018-10-19T14:40:20.707Z,18.83
2018-10-19T14:42:49.045Z,18.81
2018-10-19T14:45:17.845Z,18.80
2018-10-19T14:47:46.836Z,18.76
2018-10-19T14:50:16.258Z,18.77
2018-10-19T14:52:44.426Z,18.77
2018-10-19T14:55:15.249Z,18.77
2018-10-19T14:57:43.491Z,18.74
2018-10-19T15:00:13.352Z,18.71
2018-10-19T15:02:41.634Z,18.69
2018-10-19T15:05:11.616Z,18.69
2018-10-19T15:07:40.002Z,18.65
2018-10-19T15:10:11.661Z,18.61
2018-10-19T15:12:40.047Z,18.59
2018-10-19T15:15:09.506Z,18.57
2018-10-19T15:17:37.649Z,18.56
2018-10-19T15:20:06.444Z,18.54
2018-10-19T15:22:35.395Z,18.51
2018-10-19T15:25:03.615Z,18.47
2018-10-19T15:27:31.928Z,18.43
2018-10-19T15:30:00.268Z,18.42
2018-10-19T15:32:28.418Z,18.40
2018-10-19T15:34:56.627Z,18.40
2018-10-19T15:37:25.152Z,18.37
2018-10-19T15:39:53.395Z,18.35
2018-10-19T15:42:21.567Z,18.31
2018-10-19T15:44:50.487Z,18.25
2018-10-19T15:47:18.760Z,18.22
2018-10-19T15:49:46.985Z,18.16
2018-10-19T15:52:15.325Z,18.10
2018-10-19T15:54:43.571Z,18.05
2018-10-19T15:57:11.755Z,18.01
2018-10-19T15:59:39.931Z,17.98
2018-10-19T16:02:08.111Z,17.94
2018-10-19T16:04:36.275Z,17.89
2018-10-19T16:07:04.493Z,17.85
2018-10-19T16:09:32.675Z,17.81
2018-10-19T16:12:00.873Z,17.77
2018-10-19T16:14:29.026Z,17.73
2018-10-19T16:16:57.194Z,17.72
2018-10-19T16:19:25.379Z,17.68
2018-10-19T16:21:53.659Z,17.65
2018-10-19T16:24:21.859Z,17.63
2018-10-19T16:26:50.063Z,17.59
2018-10-19T16:29:18.251Z,17.57
2018-10-19T16:31:46.420Z,17.55
2018-10-19T16:34:14.630Z,17.53
2018-10-19T16:36:42.928Z,17.51
2018-10-19T16:39:11.557Z,17.50
2018-10-19T16:41:39.818Z,17.47
2018-10-19T16:44:07.978Z,17.47
2018-10-19T16:46:36.171Z,17.45
2018-10-19T16:49:04.351Z,17.45
2018-10-19T16:51:32.576Z,17.44
2018-10-19T16:54:00.770Z,17.43
2018-10-19T16:56:28.985Z,17.41
2018-10-19T16:58:57.162Z,17.41
2018-10-19T17:01:25.625Z,17.40
2018-10-19T17:03:53.853Z,17.38
2018-10-19T17:06:22.007Z,17.38
2018-10-19T17:08:50.181Z,17.36
2018-10-19T17:11:18.419Z,17.37
2018-10-19T17:13:46.622Z,17.36
2018-10-19T17:16:14.785Z,17.33
2018-10-19T17:18:43.092Z,17.32
2018-10-19T17:21:11.372Z,17.31
2018-10-19T17:23:39.526Z,17.29
2018-10-19T17:26:08.193Z,17.28
2018-10-19T17:28:37.009Z,17.25
2018-10-19T17:31:05.695Z,17.24
2018-10-19T17:33:33.930Z,17.21
2018-10-19T17:36:02.598Z,17.20
2018-10-19T17:38:30.834Z,17.16
2018-10-19T17:40:59.158Z,17.14
2018-10-19T17:43:27.477Z,17.13
2018-10-19T17:45:55.654Z,17.13
2018-10-19T17:48:23.958Z,17.10
2018-10-19T17:50:52.271Z,17.09
2018-10-19T17:53:20.634Z,17.08
2018-10-19T17:55:49.785Z,17.06
2018-10-19T17:58:18.020Z,17.03
2018-10-19T18:00:46.397Z,17.01
2018-10-19T18:03:14.665Z,17.00
2018-10-19T18:05:42.893Z,16.97
2018-10-19T18:08:11.087Z,16.96
2018-10-19T18:10:39.272Z,16.95
2018-10-19T18:13:07.551Z,16.94
2018-10-19T18:15:36.079Z,16.94
2018-10-19T18:18:04.228Z,16.94
2018-10-19T18:20:32.448Z,16.92
2018-10-19T18:23:00.798Z,16.91
2018-10-19T18:25:28.928Z,16.90
2018-10-19T18:27:57.427Z,16.86
2018-10-19T18:30:25.646Z,16.86
2018-10-19T18:32:53.835Z,16.86
2018-10-19T18:35:22.106Z,16.86
2018-10-19T18:37:50.330Z,16.86
2018-10-19T18:40:19.008Z,16.86
2018-10-19T18:42:47.323Z,16.85
2018-10-19T18:45:15.767Z,16.84
2018-10-19T18:47:44.047Z,16.83
2018-10-19T18:50:14.595Z,16.82
2018-10-19T18:52:43.318Z,16.81
2018-10-19T18:55:12.498Z,16.79
2018-10-19T18:57:40.683Z,16.79
2018-10-19T19:00:10.208Z,16.76
2018-10-19T19:02:38.386Z,16.75
2018-10-19T19:05:06.623Z,16.72
2018-10-19T19:07:34.754Z,16.70
2018-10-19T19:10:08.245Z,16.69
2018-10-19T19:12:36.522Z,16.70
2018-10-19T19:15:05.367Z,16.68
2018-10-19T19:17:33.603Z,16.68
2018-10-19T19:20:07.768Z,16.68
2018-10-19T19:22:36.727Z,16.65
2018-10-19T19:25:10.429Z,16.62
2018-10-19T19:27:38.891Z,16.61
2018-10-19T19:30:07.812Z,16.58
2018-10-19T19:32:35.987Z,16.55
2018-10-19T19:35:04.548Z,16.53
2018-10-19T19:37:33.071Z,16.49
2018-10-19T19:40:01.551Z,16.48
2018-10-19T19:42:36.543Z,16.48
2018-10-19T19:45:05.076Z,16.46
2018-10-19T19:47:38.532Z,16.46
2018-10-19T19:50:06.769Z,16.45
2018-10-19T19:52:34.991Z,16.43
2018-10-19T19:55:03.386Z,16.41
2018-10-19T19:57:31.559Z,16.39
2018-10-19T19:59:59.726Z,16.36
2018-10-19T20:02:27.935Z,16.31
2018-10-19T20:04:56.147Z,16.25
2018-10-19T20:07:24.283Z,16.16
2018-10-19T20:09:52.447Z,16.10
2018-10-19T20:12:20.667Z,16.02
2018-10-19T20:14:48.848Z,15.97
2018-10-19T20:17:17.030Z,15.89
2018-10-19T20:19:45.214Z,15.86
2018-10-19T20:22:13.379Z,15.82
2018-10-19T20:24:41.608Z,15.78
2018-10-19T20:27:09.804Z,15.74
2018-10-19T20:29:38.003Z,15.72
2018-10-19T20:32:06.266Z,15.69
2018-10-19T20:34:34.377Z,15.65
2018-10-19T20:37:04.539Z,15.64
2018-10-19T20:39:32.853Z,15.64
2018-10-19T20:42:01.741Z,15.62
2018-10-19T20:44:30.032Z,15.60
2018-10-19T20:46:59.033Z,15.57
2018-10-19T20:49:27.393Z,15.54
2018-10-19T20:51:55.574Z,15.49
2018-10-19T20:54:23.744Z,15.48
2018-10-19T20:56:51.950Z,15.45
2018-10-19T20:59:20.127Z,15.41
2018-10-19T21:01:48.321Z,15.39
2018-10-19T21:04:16.504Z,15.36
2018-10-19T21:06:44.667Z,15.33
2018-10-19T21:09:12.850Z,15.30
2018-10-19T21:11:41.011Z,15.29
2018-10-19T21:14:09.291Z,15.26
2018-10-19T21:16:37.378Z,15.28
2018-10-19T21:19:05.781Z,15.23
2018-10-19T21:21:34.735Z,15.17
2018-10-19T21:24:03.200Z,15.13
2018-10-19T21:26:31.986Z,15.10
2018-10-19T21:29:00.492Z,15.05
2018-10-19T21:31:29.160Z,15.01
2018-10-19T21:33:57.328Z,15.00
2018-10-19T21:36:25.761Z,14.99
2018-10-19T21:38:54.073Z,15.00
2018-10-19T21:41:22.235Z,14.98
2018-10-19T21:43:50.469Z,14.97
2018-10-19T21:46:18.799Z,14.97
2018-10-19T21:48:47.100Z,14.95
2018-10-19T21:51:15.546Z,14.93
2018-10-19T21:53:43.820Z,14.92
2018-10-19T21:56:12.132Z,14.90
2018-10-19T21:58:40.252Z,14.87
2018-10-19T22:01:08.426Z,14.86
2018-10-19T22:03:36.655Z,14.83
2018-10-19T22:06:04.883Z,14.79
2018-10-19T22:08:33.362Z,14.74
2018-10-19T22:11:01.483Z,14.69
2018-10-19T22:13:29.736Z,14.68
2018-10-19T22:15:58.056Z,14.63
2018-10-19T22:18:28.308Z,14.60
2018-10-19T22:20:56.557Z,14.57
2018-10-19T22:23:25.167Z,14.56
2018-10-19T22:25:53.518Z,14.54
2018-10-19T22:28:21.698Z,14.54
2018-10-19T22:30:50.104Z,14.53
2018-10-19T22:33:18.831Z,14.51
2018-10-19T22:35:47.234Z,14.49
2018-10-19T22:38:15.478Z,14.47
2018-10-19T22:40:43.636Z,14.48
2018-10-19T22:43:11.996Z,14.46
2018-10-19T22:45:40.135Z,14.45
2018-10-19T22:48:08.373Z,14.43
2018-10-19T22:50:36.801Z,14.41
2018-10-19T22:53:05.311Z,14.40
2018-10-19T22:55:33.439Z,14.38
2018-10-19T22:58:03.457Z,14.37
2018-10-19T23:00:31.874Z,14.36
2018-10-19T23:20:03.939Z,14.17
2018-10-19T23:22:32.087Z,14.15
2018-10-19T23:25:00.325Z,14.10
2018-10-19T23:27:28.492Z,14.07
2018-10-19T23:29:56.690Z,14.05
2018-10-19T23:32:31.595Z,14.03
2018-10-19T23:34:59.820Z,14.01
2018-10-19T23:37:28.144Z,13.98
2018-10-19T23:39:56.309Z,13.93
2018-10-19T23:42:24.494Z,13.89
2018-10-19T23:44:52.650Z,13.86
2018-10-19T23:47:21.715Z,13.83
2018-10-19T23:49:49.891Z,13.78
2018-10-19T23:52:18.166Z,13.77
2018-10-19T23:54:46.459Z,13.77
2018-10-19T23:57:14.642Z,13.76
2018-10-19T23:59:42.871Z,13.74
